Time;durP1;ratioP1;P1;durP2;ratioP2;P2;SDS_P1;SDS_P2;PMS_P1;PMS_P2;Temp;Humidity;BMP_temperature;BMP_pressure;BME280_temperature;BME280_humidity;BME280_pressure;Samples;Min_cycle;Max_cycle;Signal;HPM_P1;HPM_P2
2021/10/14 00:00:45;;;;;;;;;;;10.20;99.90;;;;;;5061895;28;19912;-56
2021/10/14 00:03:11;;;;;;;;;;;10.20;99.90;;;;;;5059646;28;20319;-57
2021/10/14 00:05:36;;;;;;;;;;;10.20;99.90;;;;;;5069607;28;20434;-58
2021/10/14 00:08:02;;;;;;;;;;;10.20;99.90;;;;;;5031891;28;19948;-59
2021/10/14 00:10:28;;;;;;;;;;;10.20;99.90;;;;;;5064317;28;19947;-55
2021/10/14 00:12:54;;;;;;;;;;;10.20;99.90;;;;;;5066374;28;20369;-57
2021/10/14 00:15:19;;;;;;;;;;;10.20;99.90;;;;;;5065307;28;20101;-57
2021/10/14 00:17:45;;;;;;;;;;;10.20;99.90;;;;;;5066576;28;19912;-58
2021/10/14 00:20:11;;;;;;;;;;;10.20;99.90;;;;;;5066006;28;19949;-56
2021/10/14 00:22:36;;;;;;;;;;;10.20;99.90;;;;;;5065646;28;20458;-57
2021/10/14 00:25:02;;;;;;;;;;;10.20;99.90;;;;;;5064357;28;19912;-58
2021/10/14 00:27:28;;;;;;;;;;;10.20;99.90;;;;;;5066629;28;19966;-55
2021/10/14 00:29:53;;;;;;;;;;;10.20;99.90;;;;;;5065816;28;19913;-58
2021/10/14 00:32:19;;;;;;;;;;;10.20;99.90;;;;;;5069496;28;19917;-56
2021/10/14 00:34:44;;;;;;;;;;;10.20;99.90;;;;;;5059825;28;20272;-57
2021/10/14 00:37:09;;;;;;;;;;;10.20;99.90;;;;;;5065038;28;20436;-57
2021/10/14 00:39:35;;;;;;;;;;;10.10;99.90;;;;;;5065084;28;20284;-56
2021/10/14 00:42:00;;;;;;;;;;;10.20;99.90;;;;;;5048646;28;20304;-56
2021/10/14 00:44:26;;;;;;;;;;;10.10;99.90;;;;;;5067668;28;19920;-56
2021/10/14 00:46:52;;;;;;;;;;;10.20;99.90;;;;;;5055605;28;20361;-56
2021/10/14 00:49:17;;;;;;;;;;;10.20;99.90;;;;;;5075324;28;19985;-57
2021/10/14 00:51:43;;;;;;;;;;;10.20;99.90;;;;;;5080069;22;20051;-62
2021/10/14 00:54:09;;;;;;;;;;;10.20;99.90;;;;;;5063728;28;19916;-62
2021/10/14 00:56:34;;;;;;;;;;;10.20;99.90;;;;;;5053953;28;19962;-62
2021/10/14 00:59:01;;;;;;;;;;;10.20;99.90;;;;;;5048497;28;19921;-63
2021/10/14 01:01:27;;;;;;;;;;;10.20;99.90;;;;;;5050670;28;19917;-62
2021/10/14 01:03:52;;;;;;;;;;;10.20;99.90;;;;;;5048920;28;19923;-62
2021/10/14 01:06:18;;;;;;;;;;;10.20;99.90;;;;;;5057225;28;19912;-62
2021/10/14 01:08:44;;;;;;;;;;;10.20;99.90;;;;;;5048600;28;19912;-62
2021/10/14 01:11:11;;;;;;;;;;;10.10;99.90;;;;;;5059257;28;21969;-62
2021/10/14 01:13:37;;;;;;;;;;;10.10;99.90;;;;;;5063516;28;19960;-62
2021/10/14 01:16:03;;;;;;;;;;;10.10;99.90;;;;;;5054029;28;19966;-63
2021/10/14 01:18:29;;;;;;;;;;;10.10;99.90;;;;;;5047288;28;19920;-62
2021/10/14 01:20:54;;;;;;;;;;;10.10;99.90;;;;;;5044507;28;20289;-62
2021/10/14 01:23:19;;;;;;;;;;;10.10;99.90;;;;;;5062748;28;19925;-62
2021/10/14 01:25:45;;;;;;;;;;;10.10;99.90;;;;;;5043633;28;19913;-62
2021/10/14 01:28:11;;;;;;;;;;;10.10;99.90;;;;;;5045231;28;20011;-62
2021/10/14 01:30:36;;;;;;;;;;;10.10;99.90;;;;;;5064334;28;20391;-62
2021/10/14 01:33:02;;;;;;;;;;;10.10;99.90;;;;;;5049908;28;20316;-62
2021/10/14 01:35:27;;;;;;;;;;;10.10;99.90;;;;;;5049731;28;19919;-62
2021/10/14 01:37:53;;;;;;;;;;;10.10;99.90;;;;;;5044722;28;19913;-62
2021/10/14 01:40:18;;;;;;;;;;;10.10;99.90;;;;;;5057879;28;20306;-62
2021/10/14 01:42:44;;;;;;;;;;;10.10;99.90;;;;;;5041626;28;20304;-62
2021/10/14 01:45:09;;;;;;;;;;;10.10;99.90;;;;;;5058406;28;19977;-62
2021/10/14 01:47:35;;;;;;;;;;;10.10;99.90;;;;;;5052402;28;19921;-62
2021/10/14 01:50:00;;;;;;;;;;;10.10;99.90;;;;;;5045689;28;19916;-62
2021/10/14 01:52:26;;;;;;;;;;;10.10;99.90;;;;;;5050410;28;20296;-62
2021/10/14 01:54:51;;;;;;;;;;;10.10;99.90;;;;;;5055731;28;19931;-62
2021/10/14 01:57:16;;;;;;;;;;;10.10;99.90;;;;;;5056096;28;19916;-62
2021/10/14 01:59:42;;;;;;;;;;;10.10;99.90;;;;;;5050740;28;19917;-62
2021/10/14 02:02:07;;;;;;;;;;;10.10;99.90;;;;;;5052413;28;19952;-62
2021/10/14 02:04:33;;;;;;;;;;;10.10;99.90;;;;;;5049222;28;19938;-62
2021/10/14 02:06:58;;;;;;;;;;;10.10;99.90;;;;;;5048135;28;19924;-62
2021/10/14 02:09:24;;;;;;;;;;;10.10;99.90;;;;;;5054166;28;19919;-62
2021/10/14 02:11:49;;;;;;;;;;;10.10;99.90;;;;;;5062969;28;19974;-62
2021/10/14 02:14:15;;;;;;;;;;;10.10;99.90;;;;;;5049366;28;20408;-62
2021/10/14 02:16:40;;;;;;;;;;;10.10;99.90;;;;;;5057554;28;19912;-62
2021/10/14 02:19:06;;;;;;;;;;;10.00;99.90;;;;;;5067653;28;20014;-62
2021/10/14 02:21:31;;;;;;;;;;;10.00;99.90;;;;;;5065053;28;19917;-62
2021/10/14 02:23:57;;;;;;;;;;;10.00;99.90;;;;;;5050491;28;20019;-62
2021/10/14 02:26:22;;;;;;;;;;;10.00;99.90;;;;;;5057932;28;19916;-62
2021/10/14 02:28:48;;;;;;;;;;;10.00;99.90;;;;;;5039379;28;19916;-63
2021/10/14 02:31:13;;;;;;;;;;;10.00;99.90;;;;;;5046472;28;19916;-61
2021/10/14 02:33:39;;;;;;;;;;;10.10;99.90;;;;;;5056854;28;20011;-62
2021/10/14 02:36:04;;;;;;;;;;;10.00;99.90;;;;;;5066666;28;19912;-62
2021/10/14 02:38:30;;;;;;;;;;;10.00;99.90;;;;;;5060176;28;19916;-62
2021/10/14 02:40:55;;;;;;;;;;;10.10;99.90;;;;;;5045267;28;19924;-62
2021/10/14 02:43:21;;;;;;;;;;;10.10;99.90;;;;;;5059026;28;20261;-62
2021/10/14 02:45:46;;;;;;;;;;;10.10;99.90;;;;;;5067572;28;20316;-62
2021/10/14 02:48:12;;;;;;;;;;;10.10;99.90;;;;;;5056293;28;19921;-64
2021/10/14 02:50:38;;;;;;;;;;;10.10;99.90;;;;;;5055046;28;19928;-63
2021/10/14 02:53:03;;;;;;;;;;;10.10;99.90;;;;;;5050519;28;19956;-63
2021/10/14 02:55:29;;;;;;;;;;;10.10;99.90;;;;;;5052757;28;19944;-63
2021/10/14 02:57:54;;;;;;;;;;;10.10;99.90;;;;;;5052411;28;19924;-63
2021/10/14 03:00:20;;;;;;;;;;;10.10;99.90;;;;;;5046404;28;20308;-64
2021/10/14 03:02:45;;;;;;;;;;;10.10;99.90;;;;;;5054328;28;19927;-63
2021/10/14 03:05:10;;;;;;;;;;;10.10;99.90;;;;;;5053863;28;19921;-63
2021/10/14 03:07:36;;;;;;;;;;;10.10;99.90;;;;;;5052234;28;20032;-63
2021/10/14 03:10:02;;;;;;;;;;;10.10;99.90;;;;;;5045133;28;19912;-64
2021/10/14 03:12:27;;;;;;;;;;;10.10;99.90;;;;;;5052729;28;20456;-63
2021/10/14 03:14:53;;;;;;;;;;;10.10;99.90;;;;;;5049651;28;19921;-64
2021/10/14 03:17:18;;;;;;;;;;;10.10;99.90;;;;;;5053391;28;19991;-63
2021/10/14 03:19:43;;;;;;;;;;;10.10;99.90;;;;;;5047693;28;19967;-63
2021/10/14 03:22:09;;;;;;;;;;;10.10;99.90;;;;;;5048360;28;20182;-63
2021/10/14 03:24:34;;;;;;;;;;;10.10;99.90;;;;;;5052664;28;19917;-64
2021/10/14 03:27:00;;;;;;;;;;;10.10;99.90;;;;;;5048918;28;20079;-64
2021/10/14 03:29:25;;;;;;;;;;;10.10;99.90;;;;;;5054341;28;19955;-63
2021/10/14 03:31:50;;;;;;;;;;;10.10;99.90;;;;;;5048040;28;20071;-63
2021/10/14 03:34:16;;;;;;;;;;;10.10;99.90;;;;;;5046884;28;19967;-64
2021/10/14 03:36:41;;;;;;;;;;;10.10;99.90;;;;;;5053005;28;19913;-63
2021/10/14 03:39:07;;;;;;;;;;;10.10;99.90;;;;;;5048563;28;19913;-63
2021/10/14 03:41:32;;;;;;;;;;;10.10;99.90;;;;;;5050554;28;19916;-63
2021/10/14 03:43:58;;;;;;;;;;;10.10;99.90;;;;;;5050971;28;19982;-63
2021/10/14 03:46:23;;;;;;;;;;;10.20;99.90;;;;;;5062909;28;19924;-63
2021/10/14 03:48:49;;;;;;;;;;;10.20;99.90;;;;;;5044888;28;19960;-63
2021/10/14 03:51:14;;;;;;;;;;;10.20;99.90;;;;;;5047456;28;19916;-63
2021/10/14 03:53:40;;;;;;;;;;;10.20;99.90;;;;;;5049681;28;19920;-62
2021/10/14 03:56:05;;;;;;;;;;;10.10;99.90;;;;;;5051304;28;20577;-63
2021/10/14 03:58:31;;;;;;;;;;;10.20;99.90;;;;;;5050381;28;19920;-62
2021/10/14 04:00:56;;;;;;;;;;;10.20;99.90;;;;;;5050619;28;19977;-63
2021/10/14 04:03:21;;;;;;;;;;;10.20;99.90;;;;;;5048841;28;19931;-63
2021/10/14 04:05:47;;;;;;;;;;;10.20;99.90;;;;;;5047362;28;19912;-63
2021/10/14 04:08:12;;;;;;;;;;;10.20;99.90;;;;;;5043331;28;19948;-61
2021/10/14 04:10:38;;;;;;;;;;;10.20;99.90;;;;;;5046557;28;19916;-61
2021/10/14 04:13:04;;;;;;;;;;;10.20;99.90;;;;;;5050508;28;20004;-61
2021/10/14 04:15:30;;;;;;;;;;;10.20;99.90;;;;;;5057656;28;20009;-61
2021/10/14 04:17:55;;;;;;;;;;;10.20;99.90;;;;;;5029791;28;20013;-61
2021/10/14 04:20:21;;;;;;;;;;;10.20;99.90;;;;;;5049667;28;19924;-62
2021/10/14 04:22:46;;;;;;;;;;;10.20;99.90;;;;;;5049987;28;19927;-62
2021/10/14 04:25:12;;;;;;;;;;;10.30;99.90;;;;;;5050284;28;19920;-61
2021/10/14 04:27:37;;;;;;;;;;;10.30;99.90;;;;;;5050719;28;19913;-61
2021/10/14 04:30:04;;;;;;;;;;;10.30;99.90;;;;;;5026959;28;19916;-62
2021/10/14 04:32:29;;;;;;;;;;;10.30;99.90;;;;;;5039342;28;19917;-61
2021/10/14 04:34:55;;;;;;;;;;;10.30;99.90;;;;;;5043067;28;20299;-62
2021/10/14 04:37:20;;;;;;;;;;;10.30;99.90;;;;;;5042630;28;19917;-61
2021/10/14 04:39:46;;;;;;;;;;;10.30;99.90;;;;;;5043946;28;19920;-61
2021/10/14 04:42:11;;;;;;;;;;;10.30;99.90;;;;;;5043765;28;19916;-62
2021/10/14 04:44:37;;;;;;;;;;;10.30;99.90;;;;;;5043765;28;19913;-61
2021/10/14 04:47:04;;;;;;;;;;;10.30;99.90;;;;;;5044864;28;20272;-62
2021/10/14 04:49:29;;;;;;;;;;;10.30;99.90;;;;;;5044669;28;19932;-61
2021/10/14 04:51:56;;;;;;;;;;;10.30;99.90;;;;;;5052521;28;19920;-62
2021/10/14 04:54:22;;;;;;;;;;;10.40;99.90;;;;;;5050132;28;20015;-62
2021/10/14 04:56:47;;;;;;;;;;;10.40;99.90;;;;;;5044833;28;19996;-62
2021/10/14 04:59:13;;;;;;;;;;;10.40;99.90;;;;;;5060184;28;19994;-62
2021/10/14 05:01:38;;;;;;;;;;;10.40;99.90;;;;;;5047518;28;19913;-61
2021/10/14 05:04:04;;;;;;;;;;;10.40;99.90;;;;;;5049731;28;19932;-61
2021/10/14 05:06:29;;;;;;;;;;;10.40;99.90;;;;;;5048363;28;19912;-62
2021/10/14 05:08:54;;;;;;;;;;;10.40;99.90;;;;;;5048110;28;20039;-62
2021/10/14 05:11:20;;;;;;;;;;;10.40;99.90;;;;;;5053536;28;19921;-62
2021/10/14 05:13:45;;;;;;;;;;;10.40;99.90;;;;;;5049645;28;19928;-61
2021/10/14 05:16:11;;;;;;;;;;;10.40;99.90;;;;;;5055062;28;19921;-62
2021/10/14 05:18:36;;;;;;;;;;;10.40;99.90;;;;;;5050129;28;19970;-62
2021/10/14 05:21:02;;;;;;;;;;;10.40;99.90;;;;;;5048711;28;19916;-61
2021/10/14 05:23:28;;;;;;;;;;;10.40;99.90;;;;;;5053894;28;19967;-61
2021/10/14 05:25:54;;;;;;;;;;;10.40;99.90;;;;;;5050811;28;20106;-62
2021/10/14 05:28:19;;;;;;;;;;;10.50;99.90;;;;;;5047017;28;20391;-61
2021/10/14 05:30:46;;;;;;;;;;;10.50;99.90;;;;;;5053613;28;19936;-61
2021/10/14 05:33:12;;;;;;;;;;;10.50;99.90;;;;;;5044883;28;20007;-61
2021/10/14 05:35:37;;;;;;;;;;;10.40;99.90;;;;;;5051580;28;20047;-61
2021/10/14 05:38:03;;;;;;;;;;;10.40;99.90;;;;;;5052543;28;19921;-61
2021/10/14 05:40:28;;;;;;;;;;;10.50;99.90;;;;;;5052306;28;20451;-62
2021/10/14 05:42:54;;;;;;;;;;;10.50;99.90;;;;;;5041204;28;20224;-61
2021/10/14 05:45:19;;;;;;;;;;;10.50;99.90;;;;;;5046817;28;20456;-61
2021/10/14 05:47:45;;;;;;;;;;;10.50;99.90;;;;;;5065575;28;20007;-61
2021/10/14 05:50:10;;;;;;;;;;;10.50;99.90;;;;;;5065611;28;20393;-61
2021/10/14 05:52:36;;;;;;;;;;;10.50;99.90;;;;;;5048017;28;20384;-61
2021/10/14 05:55:01;;;;;;;;;;;10.50;99.90;;;;;;5035938;28;20266;-62
2021/10/14 05:57:27;;;;;;;;;;;10.50;99.90;;;;;;5048845;28;19995;-61
2021/10/14 05:59:52;;;;;;;;;;;10.50;99.90;;;;;;5048876;28;20011;-61
2021/10/14 06:02:18;;;;;;;;;;;10.50;99.90;;;;;;5045724;28;19913;-62
2021/10/14 06:04:43;;;;;;;;;;;10.50;99.90;;;;;;5056216;28;20019;-62
2021/10/14 06:07:08;;;;;;;;;;;10.60;99.90;;;;;;5049190;28;20006;-61
2021/10/14 06:09:34;;;;;;;;;;;10.50;99.90;;;;;;5045215;28;19916;-61
2021/10/14 06:11:59;;;;;;;;;;;10.60;99.90;;;;;;5051033;28;19917;-62
2021/10/14 06:14:25;;;;;;;;;;;10.60;99.90;;;;;;5056584;28;19983;-62
2021/10/14 06:16:50;;;;;;;;;;;10.60;99.90;;;;;;5046445;28;20059;-62
2021/10/14 06:19:16;;;;;;;;;;;10.60;99.90;;;;;;5046044;28;20353;-62
2021/10/14 06:21:42;;;;;;;;;;;10.60;99.90;;;;;;5050393;28;19917;-62
2021/10/14 06:24:07;;;;;;;;;;;10.60;99.90;;;;;;5043223;28;19936;-63
2021/10/14 06:26:32;;;;;;;;;;;10.60;99.90;;;;;;5051384;28;19933;-61
2021/10/14 06:28:58;;;;;;;;;;;10.60;99.90;;;;;;5053211;28;20315;-62
2021/10/14 06:31:23;;;;;;;;;;;10.60;99.90;;;;;;5046617;28;19923;-62
2021/10/14 06:33:49;;;;;;;;;;;10.60;99.90;;;;;;5053290;28;19924;-62
2021/10/14 06:36:14;;;;;;;;;;;10.60;99.90;;;;;;5055932;28;19917;-62
2021/10/14 06:38:40;;;;;;;;;;;10.60;99.90;;;;;;5057707;28;19956;-62
2021/10/14 06:41:05;;;;;;;;;;;10.60;99.90;;;;;;5050490;28;19928;-62
2021/10/14 06:43:31;;;;;;;;;;;10.60;99.90;;;;;;5057156;28;19916;-62
2021/10/14 06:45:56;;;;;;;;;;;10.70;99.90;;;;;;5051142;28;19976;-62
2021/10/14 06:48:22;;;;;;;;;;;10.70;99.90;;;;;;5052564;28;20007;-62
2021/10/14 06:50:47;;;;;;;;;;;10.70;99.90;;;;;;5066695;22;19924;-59
2021/10/14 06:53:13;;;;;;;;;;;10.60;99.90;;;;;;5061687;28;19974;-57
2021/10/14 06:55:39;;;;;;;;;;;10.70;99.90;;;;;;5064156;28;19909;-57
2021/10/14 06:58:05;;;;;;;;;;;10.70;99.90;;;;;;5062358;28;19917;-58
2021/10/14 07:00:30;;;;;;;;;;;10.80;99.90;;;;;;5061226;28;20434;-57
2021/10/14 07:02:56;;;;;;;;;;;10.80;99.90;;;;;;5083405;28;20364;-57
2021/10/14 07:05:21;;;;;;;;;;;10.80;99.90;;;;;;5083738;28;19913;-59
2021/10/14 07:07:47;;;;;;;;;;;10.80;99.90;;;;;;5082984;28;20143;-59
2021/10/14 07:10:13;;;;;;;;;;;10.80;99.90;;;;;;5083535;28;19992;-59
2021/10/14 07:12:40;;;;;;;;;;;10.90;99.90;;;;;;5083966;28;19916;-58
2021/10/14 07:15:06;;;;;;;;;;;10.90;99.90;;;;;;5083346;28;19916;-58
2021/10/14 07:17:31;;;;;;;;;;;10.90;99.90;;;;;;5084053;28;20108;-57
2021/10/14 07:19:57;;;;;;;;;;;10.90;99.90;;;;;;5083133;28;19912;-57
2021/10/14 07:22:22;;;;;;;;;;;10.90;99.90;;;;;;5084958;28;19908;-57
2021/10/14 07:24:48;;;;;;;;;;;10.90;99.90;;;;;;5079131;28;19988;-59
2021/10/14 07:27:13;;;;;;;;;;;10.90;99.90;;;;;;5086131;28;19908;-57
2021/10/14 07:29:39;;;;;;;;;;;10.90;99.90;;;;;;5085831;28;20398;-58
2021/10/14 07:32:06;;;;;;;;;;;11.00;99.90;;;;;;5081257;28;19908;-60
2021/10/14 07:34:32;;;;;;;;;;;11.00;99.90;;;;;;5083997;28;20038;-57
2021/10/14 07:36:57;;;;;;;;;;;11.00;99.90;;;;;;5080991;28;19916;-58
2021/10/14 07:39:23;;;;;;;;;;;11.10;99.90;;;;;;5078386;28;19912;-59
2021/10/14 07:41:48;;;;;;;;;;;11.10;99.90;;;;;;5079818;28;19916;-58
2021/10/14 07:44:14;;;;;;;;;;;11.10;99.90;;;;;;5081735;28;19924;-58
2021/10/14 07:46:40;;;;;;;;;;;11.20;99.90;;;;;;5085305;28;19916;-58
2021/10/14 07:49:06;;;;;;;;;;;11.20;99.90;;;;;;5074260;28;19923;-57
2021/10/14 07:51:32;;;;;;;;;;;11.20;99.90;;;;;;5079433;28;19920;-57
2021/10/14 07:53:57;;;;;;;;;;;11.20;99.90;;;;;;5082454;28;19923;-56
2021/10/14 07:56:22;;;;;;;;;;;11.30;99.90;;;;;;5080721;28;19912;-59
2021/10/14 07:58:49;;;;;;;;;;;11.30;99.90;;;;;;5079421;28;19916;-58
2021/10/14 08:01:14;;;;;;;;;;;11.30;99.90;;;;;;5078020;28;19919;-60
2021/10/14 08:03:40;;;;;;;;;;;11.30;99.90;;;;;;5084296;28;19924;-60
2021/10/14 08:06:05;;;;;;;;;;;11.40;99.90;;;;;;5083887;28;19955;-59
2021/10/14 08:08:31;;;;;;;;;;;11.40;99.90;;;;;;5086538;28;19948;-60
2021/10/14 08:10:56;;;;;;;;;;;11.50;99.90;;;;;;5083263;28;19928;-58
2021/10/14 08:13:22;;;;;;;;;;;11.50;99.90;;;;;;5079947;28;19920;-58
2021/10/14 08:15:52;;;;;;;;;;;11.50;99.90;;;;;;5085331;28;19963;-59
2021/10/14 08:18:18;;;;;;;;;;;11.60;99.90;;;;;;5082576;28;19981;-58
2021/10/14 08:20:44;;;;;;;;;;;11.70;99.90;;;;;;5084706;28;19916;-58
2021/10/14 08:23:10;;;;;;;;;;;11.70;99.90;;;;;;5084818;28;19916;-57
2021/10/14 08:25:35;;;;;;;;;;;11.70;99.90;;;;;;5084095;28;19927;-58
2021/10/14 08:28:01;;;;;;;;;;;11.70;99.90;;;;;;5084969;28;19916;-56
2021/10/14 08:30:26;;;;;;;;;;;11.70;99.90;;;;;;5082087;28;19993;-59
2021/10/14 08:32:52;;;;;;;;;;;11.80;99.90;;;;;;5082481;28;19912;-57
2021/10/14 08:35:18;;;;;;;;;;;11.80;99.90;;;;;;5085073;28;19912;-59
2021/10/14 08:37:44;;;;;;;;;;;11.80;99.90;;;;;;5083355;28;19918;-59
2021/10/14 08:40:10;;;;;;;;;;;11.90;99.90;;;;;;5077851;28;19915;-56
2021/10/14 08:42:35;;;;;;;;;;;11.90;99.90;;;;;;5085035;28;19920;-57
2021/10/14 08:45:02;;;;;;;;;;;11.90;99.90;;;;;;5063680;28;19964;-58
2021/10/14 08:47:28;;;;;;;;;;;12.00;99.90;;;;;;5083964;28;19916;-59
2021/10/14 08:49:55;;;;;;;;;;;12.00;99.90;;;;;;5083916;28;20403;-57
2021/10/14 08:52:21;;;;;;;;;;;12.00;99.90;;;;;;5082880;28;19927;-56
2021/10/14 08:54:46;;;;;;;;;;;12.10;99.90;;;;;;5079941;28;20344;-58
2021/10/14 08:57:12;;;;;;;;;;;12.10;99.90;;;;;;5084570;28;20324;-56
2021/10/14 08:59:37;;;;;;;;;;;12.10;99.90;;;;;;5082886;28;19916;-56
2021/10/14 09:02:13;;;;;;;;;;;12.10;99.90;;;;;;5075967;28;19995;-59
2021/10/14 09:04:40;;;;;;;;;;;12.20;99.90;;;;;;5081455;28;20416;-59
2021/10/14 09:07:25;;;;;;;;;;;12.10;99.90;;;;;;5082671;28;19970;-58
2021/10/14 09:09:51;;;;;;;;;;;12.20;99.90;;;;;;5082737;28;19920;-55
2021/10/14 09:12:17;;;;;;;;;;;12.20;99.90;;;;;;5062938;28;19993;-57
2021/10/14 09:14:54;;;;;;;;;;;12.30;99.90;;;;;;5084526;28;20003;-57
2021/10/14 09:17:19;;;;;;;;;;;12.30;99.90;;;;;;5082988;28;19912;-59
2021/10/14 09:19:45;;;;;;;;;;;12.30;99.90;;;;;;5084709;28;19930;-57
2021/10/14 09:22:10;;;;;;;;;;;12.30;99.90;;;;;;5086780;28;19912;-57
2021/10/14 09:24:40;;;;;;;;;;;12.40;99.90;;;;;;5087219;28;20242;-57
2021/10/14 09:27:06;;;;;;;;;;;12.40;99.90;;;;;;5089525;28;20035;-58
2021/10/14 09:29:33;;;;;;;;;;;12.50;99.90;;;;;;5068346;28;20364;-57
2021/10/14 09:32:03;;;;;;;;;;;12.50;99.90;;;;;;5082828;28;20022;-58
2021/10/14 09:34:32;;;;;;;;;;;12.60;99.90;;;;;;5086591;28;19912;-59
2021/10/14 09:36:59;;;;;;;;;;;12.60;99.90;;;;;;5085381;28;19916;-59
2021/10/14 09:39:25;;;;;;;;;;;12.60;99.90;;;;;;5085172;28;20318;-58
2021/10/14 09:41:52;;;;;;;;;;;12.60;99.90;;;;;;5086816;28;20337;-57
2021/10/14 09:44:18;;;;;;;;;;;12.60;99.90;;;;;;5087558;28;20467;-59
2021/10/14 09:46:45;;;;;;;;;;;12.60;99.90;;;;;;5085606;28;19920;-58
2021/10/14 09:49:19;;;;;;;;;;;12.60;99.90;;;;;;5086015;28;19959;-59
2021/10/14 09:51:45;;;;;;;;;;;12.60;99.90;;;;;;5081159;28;19982;-57
2021/10/14 09:54:11;;;;;;;;;;;12.60;99.90;;;;;;5083844;28;19959;-60
2021/10/14 09:56:36;;;;;;;;;;;12.60;99.90;;;;;;5077013;28;19925;-58
2021/10/14 09:59:02;;;;;;;;;;;12.60;99.90;;;;;;5079128;28;19920;-59
2021/10/14 10:01:29;;;;;;;;;;;12.60;99.90;;;;;;5077906;28;19997;-58
2021/10/14 10:03:55;;;;;;;;;;;12.60;99.90;;;;;;5077809;28;19916;-60
2021/10/14 10:06:24;;;;;;;;;;;12.70;99.90;;;;;;5079853;28;21736;-60
2021/10/14 10:08:51;;;;;;;;;;;12.70;99.90;;;;;;5082972;28;19923;-57
2021/10/14 10:11:17;;;;;;;;;;;12.80;99.90;;;;;;5076804;28;19916;-60
2021/10/14 10:13:44;;;;;;;;;;;12.80;99.90;;;;;;5077242;28;19955;-58
2021/10/14 10:16:16;;;;;;;;;;;12.80;99.90;;;;;;5076932;28;19916;-58
2021/10/14 10:18:42;;;;;;;;;;;12.80;99.90;;;;;;5079052;28;19973;-57
2021/10/14 10:21:09;;;;;;;;;;;12.80;99.90;;;;;;5079463;28;20897;-59
2021/10/14 10:23:47;;;;;;;;;;;12.90;99.90;;;;;;5076697;28;19916;-58
2021/10/14 10:26:31;;;;;;;;;;;12.90;99.90;;;;;;5078119;28;19931;-58
2021/10/14 10:28:57;;;;;;;;;;;12.90;99.90;;;;;;5081199;28;19916;-60
2021/10/14 10:31:22;;;;;;;;;;;12.90;99.90;;;;;;5073390;28;20335;-59
2021/10/14 10:33:51;;;;;;;;;;;13.00;99.90;;;;;;5077054;28;20292;-59
2021/10/14 10:36:35;;;;;;;;;;;13.00;99.90;;;;;;5058377;28;19912;-59
2021/10/14 10:39:00;;;;;;;;;;;13.00;99.90;;;;;;5081981;28;20229;-57
2021/10/14 10:41:26;;;;;;;;;;;12.90;99.90;;;;;;5081671;28;19912;-59
2021/10/14 10:43:58;;;;;;;;;;;12.90;99.90;;;;;;5082818;28;19919;-60
2021/10/14 10:46:28;;;;;;;;;;;13.00;99.90;;;;;;5083155;28;19920;-59
2021/10/14 10:48:54;;;;;;;;;;;13.00;99.90;;;;;;5082210;28;20052;-60
2021/10/14 10:51:26;;;;;;;;;;;13.00;99.90;;;;;;5076601;28;19919;-60
2021/10/14 10:53:52;;;;;;;;;;;13.00;99.90;;;;;;5082402;28;19920;-58
2021/10/14 10:56:31;;;;;;;;;;;13.00;99.90;;;;;;5083030;28;20284;-60
2021/10/14 10:58:57;;;;;;;;;;;13.00;99.90;;;;;;5084261;28;20253;-60
2021/10/14 11:01:23;;;;;;;;;;;13.00;99.90;;;;;;5077803;28;20365;-59
2021/10/14 11:03:53;;;;;;;;;;;12.90;99.90;;;;;;5083420;28;19927;-59
2021/10/14 11:06:18;;;;;;;;;;;12.90;99.90;;;;;;5087079;28;20513;-60
2021/10/14 11:08:44;;;;;;;;;;;12.90;99.90;;;;;;5084250;28;19916;-58
2021/10/14 11:11:12;;;;;;;;;;;12.90;99.90;;;;;;5080857;28;20053;-57
2021/10/14 11:13:42;;;;;;;;;;;12.90;99.90;;;;;;5086430;28;19947;-60
2021/10/14 11:16:10;;;;;;;;;;;13.00;99.90;;;;;;5082756;28;19916;-59
2021/10/14 11:18:37;;;;;;;;;;;13.10;99.90;;;;;;5083759;28;19924;-58
2021/10/14 11:21:04;;;;;;;;;;;13.10;99.90;;;;;;5080932;28;19955;-57
2021/10/14 11:23:34;;;;;;;;;;;13.20;99.90;;;;;;5085010;28;19931;-59
2021/10/14 11:26:13;;;;;;;;;;;13.20;99.90;;;;;;5085129;28;19916;-59
2021/10/14 11:28:50;;;;;;;;;;;13.30;99.90;;;;;;5083573;28;19962;-60
2021/10/14 11:31:36;;;;;;;;;;;13.30;99.90;;;;;;5067873;28;19912;-56
2021/10/14 11:34:17;;;;;;;;;;;13.40;99.90;;;;;;5084576;28;19916;-57
2021/10/14 11:36:50;;;;;;;;;;;13.40;99.90;;;;;;5063981;28;19916;-58
2021/10/14 11:39:16;;;;;;;;;;;13.40;99.90;;;;;;5084566;28;20288;-59
2021/10/14 11:41:42;;;;;;;;;;;13.50;99.90;;;;;;5063314;28;19919;-57
2021/10/14 11:44:08;;;;;;;;;;;13.60;99.90;;;;;;5083249;28;19919;-58
2021/10/14 11:46:35;;;;;;;;;;;13.60;99.90;;;;;;5086489;28;20471;-59
2021/10/14 11:49:02;;;;;;;;;;;13.70;99.90;;;;;;5082465;28;19916;-59
2021/10/14 11:51:28;;;;;;;;;;;13.70;99.90;;;;;;5080997;28;20631;-59
2021/10/14 11:54:02;;;;;;;;;;;13.80;99.90;;;;;;5085250;28;19908;-58
2021/10/14 11:56:27;;;;;;;;;;;13.90;99.90;;;;;;5084638;28;19964;-58
2021/10/14 11:58:54;;;;;;;;;;;14.00;99.90;;;;;;5081478;28;19920;-58
2021/10/14 12:01:23;;;;;;;;;;;14.10;99.90;;;;;;5082381;28;19923;-58
2021/10/14 12:03:49;;;;;;;;;;;14.20;99.90;;;;;;5082691;28;19974;-60
2021/10/14 12:06:16;;;;;;;;;;;14.20;99.90;;;;;;5080727;28;19919;-58
2021/10/14 12:08:42;;;;;;;;;;;14.30;99.90;;;;;;5076422;28;19945;-58
2021/10/14 12:11:15;;;;;;;;;;;14.30;99.80;;;;;;5080916;28;19927;-59
2021/10/14 12:13:40;;;;;;;;;;;14.30;99.70;;;;;;5086398;28;19908;-58
2021/10/14 12:16:13;;;;;;;;;;;14.30;99.60;;;;;;5083349;28;20545;-59
2021/10/14 12:18:38;;;;;;;;;;;14.20;99.30;;;;;;5083986;28;19937;-59
2021/10/14 12:21:24;;;;;;;;;;;14.20;99.30;;;;;;5079599;28;19920;-58
2021/10/14 12:24:02;;;;;;;;;;;14.10;99.30;;;;;;5078916;28;19916;-59
2021/10/14 12:26:32;;;;;;;;;;;14.10;99.30;;;;;;5083386;28;19951;-54
2021/10/14 12:29:17;;;;;;;;;;;14.10;99.40;;;;;;5083166;28;19920;-58
2021/10/14 12:31:42;;;;;;;;;;;14.00;99.50;;;;;;5080736;28;19916;-57
2021/10/14 12:34:07;;;;;;;;;;;14.00;99.50;;;;;;5081864;28;20502;-59
2021/10/14 12:36:43;;;;;;;;;;;13.90;99.50;;;;;;5083441;28;19934;-59
2021/10/14 12:39:19;;;;;;;;;;;13.90;99.60;;;;;;5082543;28;20023;-58
2021/10/14 12:41:52;;;;;;;;;;;13.90;99.70;;;;;;5081053;28;19912;-59
2021/10/14 12:44:18;;;;;;;;;;;13.90;99.60;;;;;;5084408;28;19916;-57
2021/10/14 12:51:55;;;;;;;;;;;13.80;99.60;;;;;;5126049;22;19979;-72
2021/10/14 12:54:25;;;;;;;;;;;13.80;99.70;;;;;;5053094;28;20511;-73
2021/10/14 12:56:52;;;;;;;;;;;13.80;99.90;;;;;;5058805;28;19916;-72
2021/10/14 12:59:18;;;;;;;;;;;13.80;99.90;;;;;;5052822;28;19916;-72
2021/10/14 13:01:49;;;;;;;;;;;13.70;99.90;;;;;;5047542;28;19913;-76
2021/10/14 13:04:15;;;;;;;;;;;13.70;99.90;;;;;;5027134;28;20003;-75
2021/10/14 13:06:40;;;;;;;;;;;13.60;99.90;;;;;;5044233;28;20090;-75
2021/10/14 13:09:07;;;;;;;;;;;13.60;99.90;;;;;;5044021;28;19913;-75
2021/10/14 13:11:33;;;;;;;;;;;13.50;99.90;;;;;;5045451;28;19917;-74
2021/10/14 13:14:00;;;;;;;;;;;13.60;99.90;;;;;;5046782;28;19928;-74
2021/10/14 13:16:25;;;;;;;;;;;13.50;99.90;;;;;;5041026;28;19920;-74
2021/10/14 13:18:51;;;;;;;;;;;13.50;99.90;;;;;;5044921;28;19909;-73
2021/10/14 13:21:17;;;;;;;;;;;13.50;99.90;;;;;;5043590;28;19940;-73
2021/10/14 13:26:45;;;;;;;;;;;13.50;99.90;;;;;;5038067;28;20385;-73
2021/10/14 13:29:11;;;;;;;;;;;13.50;99.90;;;;;;5045796;28;19917;-75
2021/10/14 13:31:36;;;;;;;;;;;13.50;99.90;;;;;;5041254;28;19916;-74
2021/10/14 13:34:02;;;;;;;;;;;13.40;99.90;;;;;;5043957;28;19920;-73
2021/10/14 13:36:28;;;;;;;;;;;13.30;99.90;;;;;;5045169;28;19917;-73
2021/10/14 13:38:55;;;;;;;;;;;13.30;99.90;;;;;;5040624;28;20011;-74
2021/10/14 13:41:22;;;;;;;;;;;13.30;99.90;;;;;;5042386;28;19983;-74
2021/10/14 13:43:52;;;;;;;;;;;13.20;99.90;;;;;;5046224;28;20519;-73
2021/10/14 13:46:17;;;;;;;;;;;13.20;99.90;;;;;;5041473;28;19925;-73
2021/10/14 13:48:43;;;;;;;;;;;13.20;99.90;;;;;;5041443;28;20353;-72
2021/10/14 13:51:08;;;;;;;;;;;13.20;99.90;;;;;;5041867;28;19921;-72
2021/10/14 13:53:34;;;;;;;;;;;13.20;99.90;;;;;;5043829;28;19913;-71
2021/10/14 13:55:59;;;;;;;;;;;13.30;99.90;;;;;;5018632;28;20270;-76
2021/10/14 13:58:25;;;;;;;;;;;13.30;99.90;;;;;;5045334;28;19916;-74
2021/10/14 14:00:50;;;;;;;;;;;13.30;99.90;;;;;;5015855;28;19958;-73
2021/10/14 14:03:16;;;;;;;;;;;13.30;99.90;;;;;;5045797;28;19921;-73
2021/10/14 14:05:51;;;;;;;;;;;13.30;99.90;;;;;;5045978;28;19920;-72
2021/10/14 14:08:17;;;;;;;;;;;13.20;99.90;;;;;;5047940;28;19917;-73
2021/10/14 14:10:43;;;;;;;;;;;13.20;99.90;;;;;;5046975;28;19920;-72
2021/10/14 14:13:08;;;;;;;;;;;13.20;99.90;;;;;;5045148;28;19917;-73
2021/10/14 14:15:37;;;;;;;;;;;13.20;99.90;;;;;;5046768;28;19986;-75
2021/10/14 14:18:04;;;;;;;;;;;13.20;99.90;;;;;;5048926;28;19921;-74
2021/10/14 14:20:29;;;;;;;;;;;13.20;99.90;;;;;;5046189;28;20295;-74